Time;durP1;ratioP1;P1;durP2;ratioP2;P2;SDS_P1;SDS_P2;PMS_P1;PMS_P2;Temp;Humidity;BMP_temperature;BMP_pressure;BME280_temperature;BME280_humidity;BME280_pressure;Samples;Min_cycle;Max_cycle;Signal;HPM_P1;HPM_P2
2021/12/30 00:02:14;;;;;;;29.20;5.78;;;9.90;91.00;;;;;;6125055;23;92481;-71
2021/12/30 00:04:42;;;;;;;19.25;5.22;;;9.90;91.00;;;;;;6123457;23;92409;-71
2021/12/30 00:07:09;;;;;;;34.65;5.40;;;9.90;90.90;;;;;;6125158;23;92414;-71
2021/12/30 00:09:37;;;;;;;18.77;5.22;;;9.90;91.00;;;;;;6125343;23;92419;-70
2021/12/30 00:12:05;;;;;;;34.47;6.88;;;9.80;91.00;;;;;;6122859;23;109859;-71
2021/12/30 00:14:39;;;;;;;34.97;5.63;;;9.80;91.00;;;;;;6125175;23;92415;-71
2021/12/30 00:17:06;;;;;;;35.78;7.03;;;9.80;91.10;;;;;;6124018;23;95151;-71
2021/12/30 00:19:33;;;;;;;32.30;5.35;;;9.80;91.10;;;;;;6098545;23;92941;-71
2021/12/30 00:22:00;;;;;;;33.00;6.20;;;9.80;91.10;;;;;;6123131;23;94078;-71
2021/12/30 00:24:27;;;;;;;31.25;6.70;;;9.80;91.00;;;;;;6098994;23;92450;-71
2021/12/30 00:26:54;;;;;;;31.90;6.85;;;9.80;91.00;;;;;;6125357;23;92327;-71
2021/12/30 00:29:22;;;;;;;38.70;6.53;;;9.80;91.00;;;;;;6098740;23;94367;-71
2021/12/30 00:31:49;;;;;;;36.40;7.05;;;9.80;91.00;;;;;;6124341;23;105587;-70
2021/12/30 00:34:18;;;;;;;33.47;6.18;;;9.80;91.10;;;;;;6074674;23;92401;-70
2021/12/30 00:36:47;;;;;;;29.38;5.85;;;9.80;91.00;;;;;;6124553;23;92380;-71
2021/12/30 00:39:14;;;;;;;39.65;7.20;;;9.70;91.10;;;;;;6123160;23;95597;-71
2021/12/30 00:41:41;;;;;;;44.53;8.27;;;9.70;91.10;;;;;;6123084;23;94827;-71
2021/12/30 00:44:08;;;;;;;35.25;6.95;;;9.70;91.10;;;;;;6098677;23;92572;-71
2021/12/30 00:46:35;;;;;;;40.17;6.63;;;9.70;91.10;;;;;;6124535;23;92507;-71
2021/12/30 00:49:03;;;;;;;47.22;8.55;;;9.70;91.00;;;;;;6098192;23;98356;-70
2021/12/30 00:51:30;;;;;;;35.13;6.90;;;9.70;91.00;;;;;;6122747;23;92876;-71
2021/12/30 00:53:57;;;;;;;43.50;7.28;;;9.70;91.10;;;;;;6124745;23;92448;-71
2021/12/30 00:56:24;;;;;;;36.55;8.10;;;9.70;91.00;;;;;;6124823;23;92518;-70
2021/12/30 00:58:52;;;;;;;51.38;7.63;;;9.70;91.00;;;;;;6122786;23;108200;-71
2021/12/30 01:01:20;;;;;;;49.97;7.50;;;9.70;91.00;;;;;;6097872;23;93216;-70
2021/12/30 01:03:47;;;;;;;44.53;6.65;;;9.70;91.20;;;;;;6098178;23;92451;-70
2021/12/30 01:06:14;;;;;;;51.20;7.35;;;9.70;90.90;;;;;;6121925;23;94889;-71
2021/12/30 01:08:41;;;;;;;45.75;7.10;;;9.60;90.80;;;;;;6097346;23;97127;-71
2021/12/30 01:11:08;;;;;;;42.03;6.57;;;9.60;90.80;;;;;;6122984;23;92765;-71
2021/12/30 01:13:40;;;;;;;39.85;7.57;;;9.60;90.70;;;;;;6097837;23;92378;-71
2021/12/30 01:16:17;;;;;;;55.85;7.78;;;9.60;90.70;;;;;;6125011;23;92342;-70
2021/12/30 01:19:16;;;;;;;40.53;7.95;;;9.60;90.70;;;;;;6124234;23;92981;-70
2021/12/30 01:21:43;;;;;;;43.20;6.80;;;9.60;90.70;;;;;;6097172;23;96048;-71
2021/12/30 01:24:10;;;;;;;44.78;6.72;;;9.60;90.70;;;;;;6125158;23;91571;-71
2021/12/30 01:26:37;;;;;;;43.83;7.05;;;9.50;90.70;;;;;;6124481;23;92302;-70
2021/12/30 01:29:04;;;;;;;41.33;6.57;;;9.50;90.60;;;;;;6098314;23;93870;-71
2021/12/30 01:31:31;;;;;;;47.47;7.35;;;9.50;90.70;;;;;;6072580;23;94911;-70
2021/12/30 01:34:18;;;;;;;44.75;6.28;;;9.50;90.70;;;;;;6102956;23;92411;-70
2021/12/30 01:36:45;;;;;;;35.33;7.00;;;9.50;90.80;;;;;;6124121;23;92402;-71
2021/12/30 01:39:12;;;;;;;43.72;7.65;;;9.50;90.80;;;;;;6073321;23;92742;-71
2021/12/30 01:41:41;;;;;;;43.15;8.38;;;9.50;90.80;;;;;;6096889;23;105733;-70
2021/12/30 01:44:08;;;;;;;40.50;8.55;;;9.50;90.70;;;;;;6124556;23;92550;-71
2021/12/30 01:46:40;;;;;;;38.30;6.40;;;9.50;90.60;;;;;;6124100;23;92821;-70
2021/12/30 01:49:11;;;;;;;38.30;5.80;;;9.50;90.60;;;;;;6097699;23;93415;-71
2021/12/30 01:51:39;;;;;;;37.38;6.30;;;9.50;90.60;;;;;;6123945;23;92433;-70
2021/12/30 01:54:07;;;;;;;44.58;6.55;;;9.40;90.60;;;;;;6124546;23;92452;-71
2021/12/30 01:56:34;;;;;;;36.85;6.63;;;9.40;90.70;;;;;;6123044;23;94824;-70
2021/12/30 01:59:02;;;;;;;32.28;6.55;;;9.40;90.70;;;;;;6097849;23;93140;-71
2021/12/30 02:01:31;;;;;;;37.70;5.75;;;9.40;90.60;;;;;;6124290;23;92924;-70
2021/12/30 02:03:58;;;;;;;37.35;5.80;;;9.40;90.60;;;;;;6097989;23;92463;-70
2021/12/30 02:06:25;;;;;;;38.22;5.93;;;9.40;90.60;;;;;;6098076;23;92471;-71
2021/12/30 02:08:53;;;;;;;36.58;6.60;;;9.40;90.60;;;;;;6124029;23;93232;-70
2021/12/30 02:11:21;;;;;;;28.40;5.95;;;9.40;90.70;;;;;;6123973;23;94813;-70
2021/12/30 02:13:52;;;;;;;31.98;5.90;;;9.40;90.70;;;;;;6123720;23;105088;-70
2021/12/30 02:16:21;;;;;;;36.20;5.22;;;9.40;90.70;;;;;;6124711;23;92746;-70
2021/12/30 02:18:50;;;;;;;42.13;7.30;;;9.40;90.70;;;;;;6122112;23;93146;-70
2021/12/30 02:21:17;;;;;;;36.63;7.22;;;9.40;90.70;;;;;;6120940;23;94990;-70
2021/12/30 02:23:44;;;;;;;36.17;6.45;;;9.40;90.70;;;;;;6124103;23;92356;-70
2021/12/30 02:26:14;;;;;;;40.33;5.85;;;9.40;90.60;;;;;;6097373;23;92875;-70
2021/12/30 02:28:42;;;;;;;32.10;5.78;;;9.40;90.70;;;;;;6123697;23;92863;-70
2021/12/30 02:31:14;;;;;;;36.47;6.13;;;9.40;90.60;;;;;;6122352;23;92890;-70
2021/12/30 02:33:42;;;;;;;44.20;6.25;;;9.40;90.70;;;;;;6124227;23;92309;-70
2021/12/30 02:36:10;;;;;;;39.35;5.80;;;9.40;90.70;;;;;;6124083;23;92399;-70
2021/12/30 02:38:37;;;;;;;37.67;5.63;;;9.40;90.60;;;;;;6125010;23;92286;-70
2021/12/30 02:41:04;;;;;;;30.13;6.45;;;9.40;90.70;;;;;;6096892;23;105299;-70
2021/12/30 02:43:32;;;;;;;42.60;7.03;;;9.30;90.60;;;;;;6124145;23;92310;-70
2021/12/30 02:46:01;;;;;;;46.28;6.57;;;9.40;90.70;;;;;;6122366;23;94834;-70
2021/12/30 02:48:31;;;;;;;40.38;6.55;;;9.40;90.60;;;;;;6146572;22;92795;-70
2021/12/30 02:51:02;;;;;;;42.47;6.50;;;9.30;90.60;;;;;;6123607;23;92809;-70
2021/12/30 02:53:29;;;;;;;39.85;6.15;;;9.40;90.60;;;;;;6124056;23;92478;-70
2021/12/30 02:55:56;;;;;;;43.80;8.00;;;9.30;90.70;;;;;;6123479;23;92278;-70
2021/12/30 02:58:24;;;;;;;44.70;7.72;;;9.30;90.80;;;;;;6123834;23;92988;-70
2021/12/30 03:01:18;;;;;;;41.30;9.65;;;9.30;90.90;;;;;;6097652;23;92478;-70
2021/12/30 03:03:45;;;;;;;50.00;10.90;;;9.40;90.90;;;;;;6094781;23;91747;-70
2021/12/30 03:06:14;;;;;;;50.42;11.20;;;9.40;91.10;;;;;;6124446;23;92514;-69
2021/12/30 03:08:42;;;;;;;55.60;13.00;;;9.50;91.10;;;;;;6124302;23;93092;-70
2021/12/30 03:11:10;;;;;;;52.00;13.52;;;9.60;91.20;;;;;;6122849;23;95090;-70
2021/12/30 03:13:41;;;;;;;42.85;12.25;;;9.70;91.20;;;;;;6124417;23;92406;-70
2021/12/30 03:16:14;;;;;;;57.90;14.93;;;9.70;91.10;;;;;;6097668;23;96066;-70
2021/12/30 03:18:44;;;;;;;58.95;13.32;;;9.90;91.30;;;;;;6124327;23;92422;-70
2021/12/30 03:21:13;;;;;;;58.63;15.73;;;9.90;91.20;;;;;;6124140;23;92761;-70
2021/12/30 03:23:41;;;;;;;59.72;15.13;;;10.00;91.10;;;;;;6098267;23;92924;-70
2021/12/30 03:26:09;;;;;;;54.08;14.30;;;10.10;91.00;;;;;;6073099;23;92425;-70
2021/12/30 03:28:39;;;;;;;68.10;16.23;;;10.10;91.00;;;;;;6123064;23;92122;-70
2021/12/30 03:31:10;;;;;;;59.22;16.52;;;10.20;90.90;;;;;;6123836;23;92352;-70
2021/12/30 03:33:37;;;;;;;54.80;16.63;;;10.30;90.90;;;;;;6123144;23;92431;-70
2021/12/30 03:36:06;;;;;;;61.88;16.58;;;10.30;90.90;;;;;;6123189;23;95243;-70
2021/12/30 03:38:37;;;;;;;68.38;16.75;;;10.30;90.90;;;;;;6098002;23;95054;-70
2021/12/30 03:41:06;;;;;;;63.45;17.13;;;10.40;90.80;;;;;;6123973;23;92808;-70
2021/12/30 03:43:34;;;;;;;49.83;17.38;;;10.50;90.80;;;;;;6122413;23;92409;-70
2021/12/30 03:46:02;;;;;;;59.05;16.65;;;10.50;90.70;;;;;;6097533;23;92891;-70
2021/12/30 03:48:33;;;;;;;61.25;17.48;;;10.50;90.60;;;;;;6124140;23;93017;-70
2021/12/30 03:51:08;;;;;;;46.72;15.20;;;10.50;90.60;;;;;;6122389;23;93715;-70
2021/12/30 03:53:39;;;;;;;63.30;16.35;;;10.60;90.60;;;;;;6124931;23;91728;-70
2021/12/30 03:56:08;;;;;;;60.45;17.60;;;10.60;90.60;;;;;;6122530;23;92511;-70
2021/12/30 03:58:36;;;;;;;56.20;16.98;;;10.60;90.60;;;;;;6124479;23;93015;-70
2021/12/30 04:01:03;;;;;;;53.72;16.15;;;10.60;90.60;;;;;;6071007;23;94873;-70
2021/12/30 04:03:30;;;;;;;62.63;17.52;;;10.60;90.50;;;;;;6098276;23;92443;-70
2021/12/30 04:05:57;;;;;;;54.25;16.08;;;10.70;90.50;;;;;;6124025;23;92376;-70
2021/12/30 04:08:25;;;;;;;51.72;16.23;;;10.70;90.60;;;;;;6097940;23;98073;-70
2021/12/30 04:10:52;;;;;;;59.17;15.82;;;10.70;90.50;;;;;;6097567;23;94639;-70
2021/12/30 04:13:19;;;;;;;52.53;15.52;;;10.70;90.40;;;;;;6124140;23;92460;-70
2021/12/30 04:15:46;;;;;;;65.50;16.25;;;10.70;90.50;;;;;;6124476;23;93009;-70
2021/12/30 04:18:13;;;;;;;60.45;16.33;;;10.70;90.50;;;;;;6098073;23;92265;-71
2021/12/30 04:20:40;;;;;;;53.15;15.10;;;10.70;90.70;;;;;;6124220;23;92757;-71
2021/12/30 04:23:07;;;;;;;54.30;15.35;;;10.70;90.40;;;;;;6073653;23;92542;-70
2021/12/30 04:25:35;;;;;;;54.40;15.85;;;10.80;90.50;;;;;;6123022;23;95197;-70
2021/12/30 04:28:02;;;;;;;62.33;18.20;;;10.80;90.60;;;;;;6123918;23;93047;-71
2021/12/30 04:30:29;;;;;;;55.72;15.60;;;10.80;90.50;;;;;;6124111;23;92765;-71
2021/12/30 04:32:56;;;;;;;55.75;16.52;;;10.80;90.60;;;;;;6124396;23;92423;-70
2021/12/30 04:35:23;;;;;;;59.45;16.25;;;10.80;90.60;;;;;;6124246;23;92468;-71
2021/12/30 04:37:50;;;;;;;49.95;15.63;;;10.80;90.60;;;;;;6123887;23;94328;-71
2021/12/30 04:40:17;;;;;;;58.22;17.25;;;10.80;90.70;;;;;;6121900;23;93941;-71
2021/12/30 04:42:44;;;;;;;59.65;17.52;;;10.80;90.80;;;;;;6098119;23;91623;-71
2021/12/30 04:45:12;;;;;;;51.97;16.13;;;10.90;90.70;;;;;;6123499;23;96120;-70
2021/12/30 04:47:40;;;;;;;55.72;17.35;;;10.90;90.70;;;;;;6123582;23;96607;-70
2021/12/30 04:50:11;;;;;;;55.10;16.13;;;10.90;90.70;;;;;;6096363;23;95238;-70
2021/12/30 04:52:37;;;;;;;66.35;16.30;;;11.00;90.70;;;;;;6124031;23;94764;-71
2021/12/30 04:55:06;;;;;;;44.78;14.85;;;11.00;90.60;;;;;;6097592;23;92451;-70
2021/12/30 04:57:33;;;;;;;56.60;16.50;;;11.00;90.60;;;;;;6123814;23;93133;-71
2021/12/30 05:00:01;;;;;;;53.33;16.02;;;11.10;90.60;;;;;;6123788;23;92883;-71
2021/12/30 05:02:38;;;;;;;52.97;16.67;;;11.10;90.50;;;;;;6124008;23;92410;-71
2021/12/30 05:05:05;;;;;;;58.70;17.42;;;11.20;90.50;;;;;;6078016;23;92543;-71
2021/12/30 05:07:32;;;;;;;57.70;15.63;;;11.20;90.40;;;;;;6124520;23;92301;-71
2021/12/30 05:09:59;;;;;;;60.50;15.93;;;11.20;90.30;;;;;;6097102;23;104835;-70
2021/12/30 05:12:26;;;;;;;51.15;16.20;;;11.30;90.30;;;;;;6124248;23;92512;-71
2021/12/30 05:14:53;;;;;;;67.13;17.23;;;11.30;90.30;;;;;;6122786;23;94841;-70
2021/12/30 05:17:20;;;;;;;56.22;15.60;;;11.40;90.30;;;;;;6097428;23;93445;-71
2021/12/30 05:19:47;;;;;;;51.78;14.85;;;11.40;90.20;;;;;;6072918;23;95386;-71
2021/12/30 05:22:14;;;;;;;58.28;16.63;;;11.50;90.20;;;;;;6123796;23;92328;-70
2021/12/30 05:24:41;;;;;;;61.25;16.50;;;11.50;90.20;;;;;;6123190;23;92444;-70
2021/12/30 05:27:08;;;;;;;59.45;16.65;;;11.50;90.20;;;;;;6121927;23;92900;-69
2021/12/30 05:29:34;;;;;;;56.03;16.08;;;11.50;90.10;;;;;;6121896;23;93912;-69
2021/12/30 05:32:02;;;;;;;64.57;15.73;;;11.60;90.10;;;;;;6098007;23;91657;-69
2021/12/30 05:34:33;;;;;;;56.60;14.48;;;11.60;90.00;;;;;;6097507;23;93548;-69
2021/12/30 05:37:00;;;;;;;64.82;16.40;;;11.60;90.00;;;;;;6123783;23;92997;-70
2021/12/30 05:39:26;;;;;;;61.92;16.25;;;11.60;90.10;;;;;;6121399;23;110975;-69
2021/12/30 05:41:53;;;;;;;57.80;16.10;;;11.70;90.30;;;;;;6097855;23;92438;-69
2021/12/30 05:44:20;;;;;;;39.50;15.55;;;11.70;90.30;;;;;;6124039;23;92798;-69
2021/12/30 05:46:47;;;;;;;41.60;14.63;;;11.70;90.30;;;;;;6096861;23;93036;-70
2021/12/30 05:49:14;;;;;;;48.10;14.85;;;11.70;90.30;;;;;;6097171;23;92839;-69
2021/12/30 05:51:41;;;;;;;42.20;14.60;;;11.70;90.40;;;;;;6097948;22;92416;-70
2021/12/30 05:54:09;;;;;;;42.00;14.70;;;11.80;90.40;;;;;;6123696;23;92574;-70
2021/12/30 05:56:36;;;;;;;44.63;15.57;;;11.80;90.50;;;;;;6073394;23;95065;-70
2021/12/30 05:59:03;;;;;;;43.13;15.93;;;11.80;90.50;;;;;;6123624;23;92420;-69
2021/12/30 06:01:30;;;;;;;44.10;15.23;;;11.80;90.50;;;;;;6123572;23;92460;-70
2021/12/30 06:04:00;;;;;;;38.30;14.57;;;11.80;90.50;;;;;;6097133;23;94813;-69
2021/12/30 06:06:27;;;;;;;41.38;14.88;;;11.90;90.50;;;;;;6123316;23;94062;-70
2021/12/30 06:08:55;;;;;;;48.17;16.35;;;11.90;90.50;;;;;;6122031;23;92789;-70
2021/12/30 06:11:22;;;;;;;37.17;13.65;;;11.90;90.60;;;;;;6120926;23;109705;-70
2021/12/30 06:13:49;;;;;;;37.03;14.07;;;11.90;90.50;;;;;;6073047;23;92647;-70
2021/12/30 06:16:16;;;;;;;39.92;15.60;;;12.00;90.50;;;;;;6124123;23;93050;-70
2021/12/30 06:18:43;;;;;;;32.25;12.93;;;12.00;90.50;;;;;;6123939;23;92792;-70
2021/12/30 06:21:09;;;;;;;28.70;12.98;;;12.00;90.50;;;;;;6073683;23;91723;-70
2021/12/30 06:23:36;;;;;;;36.58;14.60;;;12.00;90.50;;;;;;6097815;23;92480;-70
2021/12/30 06:26:03;;;;;;;27.40;12.10;;;12.00;90.40;;;;;;6123641;23;93496;-70
2021/12/30 06:28:30;;;;;;;23.30;12.15;;;12.10;90.40;;;;;;6121978;23;94819;-70
2021/12/30 06:30:57;;;;;;;33.95;12.95;;;12.10;90.40;;;;;;6097421;23;92490;-70
2021/12/30 06:33:24;;;;;;;25.63;11.85;;;12.10;90.30;;;;;;6097524;23;92903;-70
2021/12/30 06:35:51;;;;;;;22.75;11.85;;;12.10;90.30;;;;;;6096336;23;102976;-70
2021/12/30 06:38:18;;;;;;;32.03;12.00;;;12.10;90.40;;;;;;6121355;23;95543;-70
2021/12/30 06:40:45;;;;;;;22.38;11.85;;;12.20;90.40;;;;;;6123411;23;92330;-70
2021/12/30 06:43:12;;;;;;;26.15;12.30;;;12.20;90.30;;;;;;6123730;23;92888;-70
2021/12/30 06:45:39;;;;;;;36.47;12.30;;;12.20;90.30;;;;;;6073020;23;93282;-70
2021/12/30 06:48:07;;;;;;;30.25;13.43;;;12.20;90.30;;;;;;6123493;23;92513;-70
2021/12/30 06:50:34;;;;;;;30.33;12.95;;;12.20;90.30;;;;;;6123312;23;92339;-70
2021/12/30 06:53:01;;;;;;;34.45;13.45;;;12.20;90.40;;;;;;6122064;23;94937;-70
2021/12/30 06:55:28;;;;;;;47.30;16.17;;;12.20;90.40;;;;;;6121358;22;93342;-70
2021/12/30 06:57:55;;;;;;;42.83;16.55;;;12.30;90.40;;;;;;6121613;23;92756;-70
2021/12/30 07:00:22;;;;;;;40.50;15.75;;;12.30;90.50;;;;;;6096879;23;92728;-70
2021/12/30 07:02:49;;;;;;;36.03;13.98;;;12.40;90.50;;;;;;6123279;23;92432;-70
2021/12/30 07:05:16;;;;;;;36.08;16.08;;;12.40;90.50;;;;;;6123087;23;93274;-71
2021/12/30 07:07:44;;;;;;;39.30;15.98;;;12.40;90.50;;;;;;6123217;23;92912;-70
2021/12/30 07:10:11;;;;;;;45.60;16.77;;;12.40;90.50;;;;;;6123051;23;105239;-70
2021/12/30 07:12:38;;;;;;;42.95;17.27;;;12.40;90.50;;;;;;6122687;23;92445;-70
2021/12/30 07:15:06;;;;;;;31.33;14.35;;;12.50;90.50;;;;;;6122750;23;94088;-70
2021/12/30 07:17:33;;;;;;;52.30;17.45;;;12.50;90.50;;;;;;6094481;23;94858;-71
2021/12/30 07:20:01;;;;;;;30.67;13.45;;;12.50;90.50;;;;;;6121412;23;92431;-70
2021/12/30 07:22:28;;;;;;;40.70;15.00;;;12.50;90.50;;;;;;6096674;23;92480;-70
2021/12/30 07:25:18;;;;;;;33.33;14.32;;;12.50;90.50;;;;;;6121656;23;93090;-71
2021/12/30 07:27:46;;;;;;;33.72;12.95;;;12.60;90.60;;;;;;6122776;23;92900;-71
2021/12/30 07:30:14;;;;;;;38.20;14.05;;;12.60;90.50;;;;;;6123023;23;92373;-70
2021/12/30 07:32:41;;;;;;;35.05;14.00;;;12.60;90.50;;;;;;6122859;23;92368;-71
2021/12/30 07:35:09;;;;;;;41.83;15.45;;;12.60;90.50;;;;;;6096925;23;102282;-71
2021/12/30 07:37:36;;;;;;;35.60;13.23;;;12.70;90.50;;;;;;6122810;23;92434;-71
2021/12/30 07:40:04;;;;;;;33.15;13.50;;;12.70;90.40;;;;;;6122913;23;92354;-71
2021/12/30 07:42:32;;;;;;;32.67;13.52;;;12.70;90.40;;;;;;6121353;23;94837;-70
2021/12/30 07:44:59;;;;;;;31.52;12.80;;;12.70;90.50;;;;;;6096842;23;92857;-71
2021/12/30 07:47:26;;;;;;;26.10;11.20;;;12.80;90.40;;;;;;6096008;23;98036;-70
2021/12/30 07:49:53;;;;;;;28.83;11.32;;;12.80;90.40;;;;;;6124358;23;92448;-70
2021/12/30 07:52:20;;;;;;;19.05;9.82;;;12.80;90.40;;;;;;6122388;23;92447;-71
2021/12/30 07:54:47;;;;;;;17.65;8.82;;;12.80;90.40;;;;;;6124543;23;92875;-70
2021/12/30 07:57:20;;;;;;;14.70;8.30;;;12.90;90.40;;;;;;6124760;23;92731;-70
2021/12/30 07:59:48;;;;;;;12.40;7.47;;;12.90;90.40;;;;;;6125156;23;92279;-70
2021/12/30 08:02:15;;;;;;;12.60;6.70;;;12.90;90.40;;;;;;6124914;23;92506;-71
2021/12/30 08:04:42;;;;;;;11.05;6.75;;;13.00;90.40;;;;;;6098897;23;93100;-70
2021/12/30 08:07:09;;;;;;;11.70;6.40;;;13.00;90.30;;;;;;6123640;23;95086;-70
2021/12/30 08:09:37;;;;;;;9.10;5.88;;;13.00;90.30;;;;;;6147400;22;104959;-70
2021/12/30 08:12:04;;;;;;;11.27;5.65;;;13.10;90.40;;;;;;6123405;23;92468;-70
2021/12/30 08:14:31;;;;;;;11.82;6.30;;;13.10;90.30;;;;;;6098437;23;92922;-70
2021/12/30 08:17:00;;;;;;;9.27;5.55;;;13.10;90.20;;;;;;6124792;23;92841;-71
2021/12/30 08:19:30;;;;;;;9.00;5.35;;;13.20;90.30;;;;;;6124760;23;92460;-70
2021/12/30 08:21:57;;;;;;;8.07;5.13;;;13.10;90.20;;;;;;6124834;23;92411;-70
2021/12/30 08:24:24;;;;;;;8.23;4.85;;;13.20;90.20;;;;;;6125389;23;92160;-70
2021/12/30 08:27:12;;;;;;;7.50;4.35;;;13.20;90.20;;;;;;6125058;23;93382;-70
2021/12/30 08:29:39;;;;;;;7.55;4.82;;;13.20;90.10;;;;;;6099031;23;92469;-70
2021/12/30 08:32:08;;;;;;;6.13;4.20;;;13.20;90.20;;;;;;6123534;23;95328;-70
2021/12/30 08:34:35;;;;;;;7.20;4.82;;;13.30;90.20;;;;;;6124388;23;92871;-70
2021/12/30 08:37:03;;;;;;;4.43;4.00;;;13.30;90.50;;;;;;6124687;23;92857;-70
2021/12/30 08:39:30;;;;;;;5.53;4.63;;;13.30;90.20;;;;;;6097697;23;92382;-70
2021/12/30 08:41:58;;;;;;;5.30;4.68;;;13.30;90.10;;;;;;6124858;23;92404;-70
2021/12/30 08:44:26;;;;;;;5.05;3.92;;;13.40;90.20;;;;;;6122758;23;93147;-70
2021/12/30 08:46:53;;;;;;;5.25;4.07;;;13.40;90.10;;;;;;6122959;23;92799;-70
2021/12/30 08:49:21;;;;;;;5.55;3.83;;;13.40;90.10;;;;;;6125197;23;91739;-71
2021/12/30 08:51:48;;;;;;;4.03;3.47;;;13.50;90.10;;;;;;6124639;23;92469;-70
2021/12/30 08:54:15;;;;;;;5.32;4.00;;;13.50;90.10;;;;;;6124474;23;93053;-70
2021/12/30 08:56:42;;;;;;;6.30;4.20;;;13.40;90.20;;;;;;6123147;23;94806;-70
2021/12/30 08:59:09;;;;;;;3.65;3.00;;;13.50;90.20;;;;;;6098533;23;92553;-71
2021/12/30 09:01:36;;;;;;;4.07;3.25;;;13.50;90.30;;;;;;6124508;23;92443;-71
2021/12/30 09:04:04;;;;;;;4.45;3.30;;;13.50;90.30;;;;;;6124361;23;92916;-70
2021/12/30 09:06:31;;;;;;;4.22;3.33;;;13.50;90.30;;;;;;6124442;23;92800;-71
2021/12/30 09:08:58;;;;;;;4.47;3.08;;;13.50;90.20;;;;;;6098264;23;95230;-70
2021/12/30 09:11:25;;;;;;;3.22;2.92;;;13.50;90.20;;;;;;6098483;23;92504;-70
2021/12/30 09:13:52;;;;;;;4.03;3.20;;;13.60;90.10;;;;;;6098461;23;92214;-70
2021/12/30 09:16:18;;;;;;;3.63;3.33;;;13.60;90.10;;;;;;6124435;23;92333;-71
2021/12/30 09:18:45;;;;;;;4.10;3.60;;;13.60;90.00;;;;;;6098564;23;92351;-71
2021/12/30 09:21:13;;;;;;;4.95;4.28;;;13.70;90.00;;;;;;6123426;23;95011;-70
2021/12/30 09:23:39;;;;;;;5.00;4.50;;;13.70;90.00;;;;;;6098035;23;92895;-70
2021/12/30 09:26:06;;;;;;;5.03;4.55;;;13.70;90.00;;;;;;6124486;23;92786;-70
2021/12/30 09:28:33;;;;;;;6.63;5.50;;;13.80;90.00;;;;;;6098849;23;92838;-71
2021/12/30 09:31:00;;;;;;;6.32;4.97;;;13.80;90.00;;;;;;6124304;23;92436;-71
2021/12/30 09:33:27;;;;;;;7.07;4.75;;;13.80;89.90;;;;;;6122234;23;106114;-71
2021/12/30 09:35:54;;;;;;;7.03;4.72;;;13.80;89.80;;;;;;6097961;23;95858;-71
2021/12/30 09:38:21;;;;;;;7.75;4.50;;;13.80;89.80;;;;;;6074782;23;92021;-71
2021/12/30 09:40:49;;;;;;;8.02;4.68;;;13.90;89.90;;;;;;6124467;23;92398;-71
2021/12/30 09:43:16;;;;;;;8.75;5.60;;;13.90;90.00;;;;;;6124615;23;92398;-71
2021/12/30 09:45:44;;;;;;;9.82;4.50;;;13.90;89.90;;;;;;6123154;23;95096;-71
2021/12/30 09:48:13;;;;;;;6.07;3.58;;;13.90;90.00;;;;;;6093694;23;92540;-71
2021/12/30 09:50:54;;;;;;;7.50;4.65;;;13.90;90.00;;;;;;6095343;23;92770;-71
2021/12/30 09:53:23;;;;;;;6.00;4.00;;;13.90;90.00;;;;;;6118487;23;94190;-71
2021/12/30 09:55:52;;;;;;;6.78;4.88;;;13.90;90.00;;;;;;6094653;23;92731;-71
2021/12/30 09:58:19;;;;;;;7.65;4.50;;;14.00;90.00;;;;;;6093367;23;102289;-71
2021/12/30 10:00:46;;;;;;;4.82;3.58;;;14.00;90.00;;;;;;6094875;23;92440;-71
2021/12/30 10:03:13;;;;;;;6.82;4.90;;;13.90;90.30;;;;;;6093606;23;94694;-71
2021/12/30 10:05:42;;;;;;;9.45;4.88;;;13.90;90.40;;;;;;6094949;23;92381;-71
2021/12/30 10:08:13;;;;;;;7.53;5.32;;;14.00;90.40;;;;;;6094903;23;92881;-71
2021/12/30 10:10:44;;;;;;;11.85;5.88;;;13.90;90.20;;;;;;6116244;23;94835;-71
2021/12/30 10:13:29;;;;;;;11.65;5.28;;;14.00;90.20;;;;;;6094867;23;93190;-76
2021/12/30 10:16:16;;;;;;;7.00;5.18;;;14.00;90.10;;;;;;6094458;23;92893;-76
2021/12/30 10:18:53;;;;;;;9.48;4.40;;;14.00;90.10;;;;;;6094901;23;92343;-76
2021/12/30 10:21:24;;;;;;;7.07;4.43;;;14.00;90.10;;;;;;6095410;23;92306;-76
2021/12/30 10:23:54;;;;;;;9.75;5.15;;;14.00;90.10;;;;;;6117192;23;94098;-76
2021/12/30 10:26:22;;;;;;;7.53;3.80;;;14.00;90.10;;;;;;6094746;23;92805;-76
2021/12/30 10:28:59;;;;;;;6.03;3.72;;;14.00;90.10;;;;;;6093528;23;91713;-76
2021/12/30 10:31:31;;;;;;;7.90;3.78;;;14.00;90.00;;;;;;6117967;23;92444;-76
2021/12/30 10:34:05;;;;;;;7.43;3.35;;;14.00;90.00;;;;;;6094490;23;93073;-76
2021/12/30 10:36:43;;;;;;;;;;;14.10;89.90;;;;;;6093649;23;94799;-76
2021/12/30 10:39:32;;;;;;;7.78;3.28;;;14.00;89.60;;;;;;6095683;23;92386;-76
2021/12/30 10:42:05;;;;;;;6.95;2.80;;;14.10;89.60;;;;;;6094430;23;92327;-76
2021/12/30 10:45:07;;;;;;;4.07;2.83;;;14.10;90.00;;;;;;6092815;23;94310;-76
2021/12/30 10:47:53;;;;;;;6.70;2.92;;;14.10;89.90;;;;;;6057170;23;92594;-76
2021/12/30 10:50:23;;;;;;;6.93;3.00;;;14.10;90.10;;;;;;6124308;23;92367;-76
2021/12/30 10:52:53;;;;;;;6.25;3.13;;;14.10;90.10;;;;;;6146831;22;92417;-76
2021/12/30 10:55:23;;;;;;;6.88;3.80;;;14.00;90.10;;;;;;6124725;23;91775;-76
2021/12/30 10:57:50;;;;;;;6.75;3.42;;;14.10;90.10;;;;;;6121777;23;92797;-76
2021/12/30 11:00:26;;;;;;;9.95;3.95;;;14.00;90.00;;;;;;6123739;23;103083;-76
2021/12/30 11:02:53;;;;;;;7.50;3.50;;;14.10;90.20;;;;;;6122961;23;94765;-76
2021/12/30 11:05:20;;;;;;;8.65;4.07;;;14.00;90.10;;;;;;6123872;23;95402;-76
2021/12/30 11:07:51;;;;;;;8.23;3.95;;;14.10;90.10;;;;;;6124002;23;92801;-77
2021/12/30 11:10:30;;;;;;;9.95;3.92;;;14.10;90.00;;;;;;6124522;23;92342;-77
2021/12/30 11:13:10;;;;;;;11.50;4.35;;;14.10;90.00;;;;;;6124163;23;92381;-77
2021/12/30 11:15:38;;;;;;;10.73;4.30;;;14.10;90.00;;;;;;6124101;23;93061;-77
2021/12/30 11:18:11;;;;;;;12.57;5.40;;;14.10;90.00;;;;;;6122073;23;92720;-77
2021/12/30 11:20:46;;;;;;;8.77;4.15;;;14.10;90.00;;;;;;6124977;23;91872;-77
2021/12/30 11:23:15;;;;;;;13.38;4.00;;;14.10;90.00;;;;;;6124703;23;92402;-77
2021/12/30 11:25:42;;;;;;;16.38;4.75;;;14.10;89.90;;;;;;6147019;22;94045;-77
2021/12/30 11:28:11;;;;;;;13.77;4.10;;;14.10;89.70;;;;;;6123471;23;94811;-77
2021/12/30 11:30:38;;;;;;;18.38;4.47;;;14.20;89.90;;;;;;6125574;23;92317;-71
2021/12/30 11:33:05;;;;;;;13.88;4.43;;;14.20;89.20;;;;;;6125019;23;92389;-71
2021/12/30 11:35:32;;;;;;;14.57;4.97;;;14.20;88.70;;;;;;6125414;23;93535;-71
2021/12/30 11:38:00;;;;;;;12.98;4.32;;;14.30;88.50;;;;;;6125004;23;93009;-70
2021/12/30 11:40:28;;;;;;;15.10;4.15;;;14.30;88.20;;;;;;6098907;23;95169;-70
2021/12/30 11:43:07;;;;;;;12.60;4.65;;;14.30;88.70;;;;;;6125161;23;92855;-71
2021/12/30 11:45:42;;;;;;;15.75;4.18;;;14.40;88.00;;;;;;6149041;22;92254;-70
2021/12/30 11:48:24;;;;;;;13.98;4.00;;;14.40;87.70;;;;;;6124581;23;92353;-70
2021/12/30 11:51:01;;;;;;;14.38;4.30;;;14.40;87.80;;;;;;6125413;23;92368;-71
2021/12/30 11:53:28;;;;;;;19.52;4.75;;;14.40;87.70;;;;;;6122352;23;95305;-70
2021/12/30 11:56:11;;;;;;;14.95;4.35;;;14.30;87.80;;;;;;6123451;23;93793;-70
2021/12/30 11:58:44;;;;;;;17.70;4.90;;;14.30;87.50;;;;;;6125053;23;92802;-70
2021/12/30 12:01:27;;;;;;;23.27;5.32;;;14.30;87.50;;;;;;6125145;23;92687;-70
2021/12/30 12:04:21;;;;;;;13.15;4.20;;;14.30;87.10;;;;;;6125122;23;92503;-69
2021/12/30 12:06:57;;;;;;;22.58;4.70;;;14.30;87.20;;;;;;6121019;23;93412;-72
2021/12/30 12:09:29;;;;;;;23.55;5.63;;;14.40;87.10;;;;;;6125091;23;92741;-69
2021/12/30 12:11:59;;;;;;;15.52;4.05;;;14.30;87.10;;;;;;6099010;23;92192;-70
2021/12/30 12:14:29;;;;;;;21.02;5.07;;;14.40;86.90;;;;;;6125159;23;92421;-70
2021/12/30 12:17:28;;;;;;;28.23;5.53;;;14.40;86.90;;;;;;6124975;23;93001;-70
2021/12/30 12:19:56;;;;;;;17.65;5.13;;;14.40;86.90;;;;;;6123207;23;94874;-70
2021/12/30 12:22:24;;;;;;;21.30;5.28;;;14.40;86.90;;;;;;6098889;23;92498;-70
2021/12/30 12:25:14;;;;;;;22.63;5.10;;;14.40;86.90;;;;;;6098270;23;92530;-70
2021/12/30 12:27:49;;;;;;;24.75;6.13;;;14.50;86.50;;;;;;6147847;22;93010;-70
2021/12/30 12:30:31;;;;;;;15.40;4.88;;;14.50;86.70;;;;;;6122804;23;93892;-70
2021/12/30 12:33:00;;;;;;;29.88;6.10;;;14.40;86.50;;;;;;6098319;23;92431;-71
2021/12/30 12:35:32;;;;;;;18.77;4.68;;;14.40;86.70;;;;;;6147683;22;92470;-71
2021/12/30 12:38:06;;;;;;;19.17;5.40;;;14.50;86.50;;;;;;6148836;22;92283;-71
2021/12/30 12:40:39;;;;;;;24.17;4.78;;;14.50;86.30;;;;;;6124692;23;92426;-70
2021/12/30 12:43:23;;;;;;;19.75;4.43;;;14.50;86.10;;;;;;6124386;23;92305;-71
2021/12/30 12:45:55;;;;;;;23.70;5.40;;;14.50;86.00;;;;;;6147029;22;94768;-71
2021/12/30 12:48:29;;;;;;;20.63;4.88;;;14.50;86.00;;;;;;6123803;23;93267;-71
2021/12/30 12:51:01;;;;;;;;;;;14.60;86.10;;;;;;6148524;22;94100;-71